sensor_id;sensor_type;location;lat;lon;timestamp;P1;durP1;ratioP1;P2;durP2;ratioP2
11877;SDS011;5998;42.676;23.268;2022-08-19T00:01:40;8.53;;;7.73;;
11877;SDS011;5998;42.676;23.268;2022-08-19T00:04:11;5.80;;;5.30;;
11877;SDS011;5998;42.676;23.268;2022-08-19T00:06:41;7.67;;;5.60;;
11877;SDS011;5998;42.676;23.268;2022-08-19T00:09:10;6.40;;;5.90;;
11877;SDS011;5998;42.676;23.268;2022-08-19T00:11:41;6.63;;;5.97;;
11877;SDS011;5998;42.676;23.268;2022-08-19T00:14:09;8.33;;;6.93;;
11877;SDS011;5998;42.676;23.268;2022-08-19T00:16:39;7.30;;;5.27;;
11877;SDS011;5998;42.676;23.268;2022-08-19T00:19:07;5.93;;;5.43;;
11877;SDS011;5998;42.676;23.268;2022-08-19T00:21:34;5.63;;;5.13;;
11877;SDS011;5998;42.676;23.268;2022-08-19T00:24:04;5.87;;;5.37;;
11877;SDS011;5998;42.676;23.268;2022-08-19T00:26:32;5.50;;;5.00;;
11877;SDS011;5998;42.676;23.268;2022-08-19T00:29:00;5.50;;;5.10;;
11877;SDS011;5998;42.676;23.268;2022-08-19T00:31:27;6.00;;;4.83;;
11877;SDS011;5998;42.676;23.268;2022-08-19T00:33:53;8.33;;;5.43;;
11877;SDS011;5998;42.676;23.268;2022-08-19T00:36:20;5.60;;;5.10;;
11877;SDS011;5998;42.676;23.268;2022-08-19T00:38:47;5.77;;;5.13;;
11877;SDS011;5998;42.676;23.268;2022-08-19T00:41:17;5.50;;;5.00;;
11877;SDS011;5998;42.676;23.268;2022-08-19T00:43:56;5.70;;;5.20;;
11877;SDS011;5998;42.676;23.268;2022-08-19T00:46:26;5.83;;;5.27;;
11877;SDS011;5998;42.676;23.268;2022-08-19T00:48:53;6.73;;;5.00;;
11877;SDS011;5998;42.676;23.268;2022-08-19T00:51:20;6.77;;;5.50;;
11877;SDS011;5998;42.676;23.268;2022-08-19T00:53:48;6.03;;;5.40;;
11877;SDS011;5998;42.676;23.268;2022-08-19T00:56:15;5.60;;;5.13;;
11877;SDS011;5998;42.676;23.268;2022-08-19T00:58:42;8.37;;;5.90;;
11877;SDS011;5998;42.676;23.268;2022-08-19T01:01:09;8.80;;;6.30;;
11877;SDS011;5998;42.676;23.268;2022-08-19T01:03:37;6.10;;;5.57;;
11877;SDS011;5998;42.676;23.268;2022-08-19T01:06:04;6.83;;;5.70;;
11877;SDS011;5998;42.676;23.268;2022-08-19T01:08:32;6.93;;;6.23;;
11877;SDS011;5998;42.676;23.268;2022-08-19T01:10:59;9.07;;;6.00;;
11877;SDS011;5998;42.676;23.268;2022-08-19T01:13:27;10.80;;;6.40;;
11877;SDS011;5998;42.676;23.268;2022-08-19T01:15:57;6.03;;;5.57;;
11877;SDS011;5998;42.676;23.268;2022-08-19T01:18:27;6.07;;;5.57;;
11877;SDS011;5998;42.676;23.268;2022-08-19T01:20:57;7.10;;;6.40;;
11877;SDS011;5998;42.676;23.268;2022-08-19T01:23:29;10.60;;;6.67;;
11877;SDS011;5998;42.676;23.268;2022-08-19T01:26:08;9.37;;;6.80;;
11877;SDS011;5998;42.676;23.268;2022-08-19T01:28:37;8.60;;;5.97;;
11877;SDS011;5998;42.676;23.268;2022-08-19T01:31:05;9.33;;;6.37;;
11877;SDS011;5998;42.676;23.268;2022-08-19T01:33:32;10.93;;;6.57;;
11877;SDS011;5998;42.676;23.268;2022-08-19T01:36:06;7.37;;;5.47;;
11877;SDS011;5998;42.676;23.268;2022-08-19T01:38:38;8.97;;;6.60;;
11877;SDS011;5998;42.676;23.268;2022-08-19T01:41:08;6.97;;;6.30;;
11877;SDS011;5998;42.676;23.268;2022-08-19T01:43:34;8.70;;;6.63;;
11877;SDS011;5998;42.676;23.268;2022-08-19T01:46:02;8.70;;;6.23;;
11877;SDS011;5998;42.676;23.268;2022-08-19T01:48:32;14.50;;;8.17;;
11877;SDS011;5998;42.676;23.268;2022-08-19T01:51:00;12.87;;;9.50;;
11877;SDS011;5998;42.676;23.268;2022-08-19T01:53:27;10.37;;;7.60;;
11877;SDS011;5998;42.676;23.268;2022-08-19T01:55:56;10.00;;;7.13;;
11877;SDS011;5998;42.676;23.268;2022-08-19T01:58:24;10.07;;;7.40;;
11877;SDS011;5998;42.676;23.268;2022-08-19T02:00:55;10.63;;;7.60;;
11877;SDS011;5998;42.676;23.268;2022-08-19T02:03:22;8.20;;;6.90;;
11877;SDS011;5998;42.676;23.268;2022-08-19T02:05:53;9.10;;;7.00;;
11877;SDS011;5998;42.676;23.268;2022-08-19T02:08:21;13.57;;;7.63;;
11877;SDS011;5998;42.676;23.268;2022-08-19T02:10:48;12.57;;;7.70;;
11877;SDS011;5998;42.676;23.268;2022-08-19T02:13:16;11.00;;;6.87;;
11877;SDS011;5998;42.676;23.268;2022-08-19T02:15:43;12.63;;;7.73;;
11877;SDS011;5998;42.676;23.268;2022-08-19T02:18:10;11.07;;;7.23;;
11877;SDS011;5998;42.676;23.268;2022-08-19T02:20:38;14.53;;;6.97;;
11877;SDS011;5998;42.676;23.268;2022-08-19T02:23:08;12.47;;;7.40;;
11877;SDS011;5998;42.676;23.268;2022-08-19T02:25:35;10.23;;;7.67;;
11877;SDS011;5998;42.676;23.268;2022-08-19T02:28:02;13.33;;;7.67;;
11877;SDS011;5998;42.676;23.268;2022-08-19T02:30:31;13.77;;;7.40;;
11877;SDS011;5998;42.676;23.268;2022-08-19T02:32:58;11.97;;;8.37;;
11877;SDS011;5998;42.676;23.268;2022-08-19T02:35:25;11.63;;;8.40;;
11877;SDS011;5998;42.676;23.268;2022-08-19T02:37:52;14.43;;;9.07;;
11877;SDS011;5998;42.676;23.268;2022-08-19T02:40:36;13.90;;;8.23;;
11877;SDS011;5998;42.676;23.268;2022-08-19T02:43:03;18.13;;;8.83;;
11877;SDS011;5998;42.676;23.268;2022-08-19T02:45:33;14.57;;;8.37;;
11877;SDS011;5998;42.676;23.268;2022-08-19T02:48:01;14.73;;;8.50;;
11877;SDS011;5998;42.676;23.268;2022-08-19T02:50:28;16.80;;;8.80;;
11877;SDS011;5998;42.676;23.268;2022-08-19T02:52:55;15.70;;;8.37;;
11877;SDS011;5998;42.676;23.268;2022-08-19T02:55:22;15.17;;;8.57;;
11877;SDS011;5998;42.676;23.268;2022-08-19T02:57:48;12.03;;;8.57;;
11877;SDS011;5998;42.676;23.268;2022-08-19T03:00:16;13.43;;;9.00;;
11877;SDS011;5998;42.676;23.268;2022-08-19T03:02:44;13.73;;;8.93;;
11877;SDS011;5998;42.676;23.268;2022-08-19T03:05:11;17.60;;;9.03;;
11877;SDS011;5998;42.676;23.268;2022-08-19T03:07:38;12.80;;;8.33;;
11877;SDS011;5998;42.676;23.268;2022-08-19T03:10:06;11.40;;;8.57;;
11877;SDS011;5998;42.676;23.268;2022-08-19T03:12:34;11.30;;;8.23;;
11877;SDS011;5998;42.676;23.268;2022-08-19T03:15:03;10.23;;;8.57;;
11877;SDS011;5998;42.676;23.268;2022-08-19T03:17:31;12.23;;;8.13;;
11877;SDS011;5998;42.676;23.268;2022-08-19T03:19:59;8.90;;;8.00;;
11877;SDS011;5998;42.676;23.268;2022-08-19T03:22:26;18.13;;;8.93;;
11877;SDS011;5998;42.676;23.268;2022-08-19T03:24:53;13.03;;;8.87;;
11877;SDS011;5998;42.676;23.268;2022-08-19T03:27:20;16.50;;;8.73;;
11877;SDS011;5998;42.676;23.268;2022-08-19T03:29:47;16.40;;;8.87;;
11877;SDS011;5998;42.676;23.268;2022-08-19T03:32:14;13.23;;;8.77;;
11877;SDS011;5998;42.676;23.268;2022-08-19T03:34:40;14.63;;;8.67;;
11877;SDS011;5998;42.676;23.268;2022-08-19T03:37:09;16.97;;;9.10;;
11877;SDS011;5998;42.676;23.268;2022-08-19T03:39:38;15.40;;;8.77;;
11877;SDS011;5998;42.676;23.268;2022-08-19T03:42:05;14.77;;;9.40;;
11877;SDS011;5998;42.676;23.268;2022-08-19T03:44:32;12.53;;;8.50;;
11877;SDS011;5998;42.676;23.268;2022-08-19T03:47:01;12.07;;;10.23;;
11877;SDS011;5998;42.676;23.268;2022-08-19T03:49:29;15.30;;;9.83;;
11877;SDS011;5998;42.676;23.268;2022-08-19T03:51:58;22.20;;;10.87;;
11877;SDS011;5998;42.676;23.268;2022-08-19T03:54:28;18.00;;;10.63;;
11877;SDS011;5998;42.676;23.268;2022-08-19T03:56:55;12.57;;;10.00;;
11877;SDS011;5998;42.676;23.268;2022-08-19T03:59:23;14.53;;;9.77;;
11877;SDS011;5998;42.676;23.268;2022-08-19T04:01:52;14.40;;;9.70;;
11877;SDS011;5998;42.676;23.268;2022-08-19T04:04:20;11.90;;;9.47;;
11877;SDS011;5998;42.676;23.268;2022-08-19T04:06:47;17.93;;;9.73;;
11877;SDS011;5998;42.676;23.268;2022-08-19T04:09:14;13.33;;;8.80;;
11877;SDS011;5998;42.676;23.268;2022-08-19T04:11:44;12.30;;;9.40;;
11877;SDS011;5998;42.676;23.268;2022-08-19T04:14:14;15.37;;;9.83;;
11877;SDS011;5998;42.676;23.268;2022-08-19T04:16:43;13.13;;;9.47;;
11877;SDS011;5998;42.676;23.268;2022-08-19T04:19:10;18.53;;;10.77;;
11877;SDS011;5998;42.676;23.268;2022-08-19T04:21:37;16.77;;;9.97;;
11877;SDS011;5998;42.676;23.268;2022-08-19T04:24:05;20.00;;;10.60;;
11877;SDS011;5998;42.676;23.268;2022-08-19T04:26:34;26.50;;;11.97;;
11877;SDS011;5998;42.676;23.268;2022-08-19T04:29:05;27.30;;;11.80;;
11877;SDS011;5998;42.676;23.268;2022-08-19T04:31:34;26.03;;;11.83;;
11877;SDS011;5998;42.676;23.268;2022-08-19T04:34:02;20.70;;;11.17;;
11877;SDS011;5998;42.676;23.268;2022-08-19T04:36:32;19.03;;;10.20;;
11877;SDS011;5998;42.676;23.268;2022-08-19T04:39:02;24.37;;;11.57;;
11877;SDS011;5998;42.676;23.268;2022-08-19T04:41:30;21.80;;;11.40;;
11877;SDS011;5998;42.676;23.268;2022-08-19T04:44:16;15.37;;;8.47;;
11877;SDS011;5998;42.676;23.268;2022-08-19T04:46:44;16.53;;;10.03;;
11877;SDS011;5998;42.676;23.268;2022-08-19T04:49:12;20.67;;;9.60;;
11877;SDS011;5998;42.676;23.268;2022-08-19T04:51:40;16.27;;;8.70;;
11877;SDS011;5998;42.676;23.268;2022-08-19T04:54:08;18.30;;;10.40;;
11877;SDS011;5998;42.676;23.268;2022-08-19T04:56:35;12.80;;;8.83;;
11877;SDS011;5998;42.676;23.268;2022-08-19T04:59:02;13.30;;;8.57;;
11877;SDS011;5998;42.676;23.268;2022-08-19T05:01:31;14.97;;;12.10;;
11877;SDS011;5998;42.676;23.268;2022-08-19T05:03:59;17.10;;;9.80;;
11877;SDS011;5998;42.676;23.268;2022-08-19T05:06:29;13.83;;;9.43;;
11877;SDS011;5998;42.676;23.268;2022-08-19T05:08:58;12.87;;;8.70;;
11877;SDS011;5998;42.676;23.268;2022-08-19T05:11:27;20.10;;;13.27;;
11877;SDS011;5998;42.676;23.268;2022-08-19T05:13:55;17.30;;;11.20;;
11877;SDS011;5998;42.676;23.268;2022-08-19T05:16:22;11.37;;;9.03;;
11877;SDS011;5998;42.676;23.268;2022-08-19T05:18:53;12.50;;;8.33;;
11877;SDS011;5998;42.676;23.268;2022-08-19T05:21:38;10.80;;;8.07;;
11877;SDS011;5998;42.676;23.268;2022-08-19T05:24:24;12.03;;;8.70;;
11877;SDS011;5998;42.676;23.268;2022-08-19T05:26:51;12.77;;;8.67;;
11877;SDS011;5998;42.676;23.268;2022-08-19T05:29:21;12.03;;;8.57;;
11877;SDS011;5998;42.676;23.268;2022-08-19T05:31:50;14.00;;;8.57;;
11877;SDS011;5998;42.676;23.268;2022-08-19T05:34:19;11.73;;;8.57;;
11877;SDS011;5998;42.676;23.268;2022-08-19T05:36:50;10.03;;;6.60;;
11877;SDS011;5998;42.676;23.268;2022-08-19T05:39:20;10.73;;;8.43;;
11877;SDS011;5998;42.676;23.268;2022-08-19T05:41:48;9.27;;;8.30;;
11877;SDS011;5998;42.676;23.268;2022-08-19T05:44:16;9.63;;;8.23;;
11877;SDS011;5998;42.676;23.268;2022-08-19T05:46:44;10.30;;;8.83;;
11877;SDS011;5998;42.676;23.268;2022-08-19T05:49:12;14.00;;;8.30;;
11877;SDS011;5998;42.676;23.268;2022-08-19T05:51:42;12.13;;;7.97;;
11877;SDS011;5998;42.676;23.268;2022-08-19T05:54:09;11.73;;;8.67;;
11877;SDS011;5998;42.676;23.268;2022-08-19T05:56:38;7.80;;;6.63;;
11877;SDS011;5998;42.676;23.268;2022-08-19T05:59:06;17.83;;;8.53;;
11877;SDS011;5998;42.676;23.268;2022-08-19T06:01:34;8.93;;;7.90;;
11877;SDS011;5998;42.676;23.268;2022-08-19T06:04:02;20.47;;;9.17;;
11877;SDS011;5998;42.676;23.268;2022-08-19T06:06:30;16.47;;;9.03;;
11877;SDS011;5998;42.676;23.268;2022-08-19T06:09:00;14.77;;;8.97;;
11877;SDS011;5998;42.676;23.268;2022-08-19T06:11:32;13.37;;;8.60;;
11877;SDS011;5998;42.676;23.268;2022-08-19T06:14:01;12.23;;;9.80;;
11877;SDS011;5998;42.676;23.268;2022-08-19T06:16:29;12.10;;;9.47;;
11877;SDS011;5998;42.676;23.268;2022-08-19T06:19:00;13.90;;;9.53;;
11877;SDS011;5998;42.676;23.268;2022-08-19T06:21:29;16.93;;;8.47;;
11877;SDS011;5998;42.676;23.268;2022-08-19T06:23:56;10.50;;;9.38;;
11877;SDS011;5998;42.676;23.268;2022-08-19T06:26:26;11.00;;;9.55;;
11877;SDS011;5998;42.676;23.268;2022-08-19T06:28:53;11.68;;;9.93;;
11877;SDS011;5998;42.676;23.268;2022-08-19T06:31:21;12.55;;;11.07;;
11877;SDS011;5998;42.676;23.268;2022-08-19T06:33:49;14.90;;;11.07;;
11877;SDS011;5998;42.676;23.268;2022-08-19T06:36:17;14.05;;;10.15;;
11877;SDS011;5998;42.676;23.268;2022-08-19T06:38:45;16.05;;;9.93;;
11877;SDS011;5998;42.676;23.268;2022-08-19T06:41:11;12.98;;;8.48;;
11877;SDS011;5998;42.676;23.268;2022-08-19T06:43:39;15.73;;;10.85;;
11877;SDS011;5998;42.676;23.268;2022-08-19T06:46:11;17.40;;;10.48;;
11877;SDS011;5998;42.676;23.268;2022-08-19T06:48:39;13.60;;;10.95;;
11877;SDS011;5998;42.676;23.268;2022-08-19T06:51:06;12.70;;;10.70;;
11877;SDS011;5998;42.676;23.268;2022-08-19T06:53:33;18.52;;;10.00;;
11877;SDS011;5998;42.676;23.268;2022-08-19T06:56:00;12.88;;;10.63;;
11877;SDS011;5998;42.676;23.268;2022-08-19T06:58:27;19.15;;;11.40;;
11877;SDS011;5998;42.676;23.268;2022-08-19T07:00:59;13.98;;;10.05;;
11877;SDS011;5998;42.676;23.268;2022-08-19T07:03:28;13.90;;;10.00;;
11877;SDS011;5998;42.676;23.268;2022-08-19T07:05:56;11.65;;;9.60;;
11877;SDS011;5998;42.676;23.268;2022-08-19T07:08:24;11.90;;;10.70;;
11877;SDS011;5998;42.676;23.268;2022-08-19T07:10:52;16.52;;;9.18;;
11877;SDS011;5998;42.676;23.268;2022-08-19T07:13:19;11.48;;;8.77;;
11877;SDS011;5998;42.676;23.268;2022-08-19T07:15:47;11.93;;;10.27;;
11877;SDS011;5998;42.676;23.268;2022-08-19T07:18:16;15.10;;;9.30;;
11877;SDS011;5998;42.676;23.268;2022-08-19T07:20:43;16.83;;;9.98;;
11877;SDS011;5998;42.676;23.268;2022-08-19T07:23:10;10.48;;;9.35;;
11877;SDS011;5998;42.676;23.268;2022-08-19T07:25:37;15.60;;;9.40;;
11877;SDS011;5998;42.676;23.268;2022-08-19T07:28:04;12.70;;;8.23;;
11877;SDS011;5998;42.676;23.268;2022-08-19T07:30:32;13.23;;;9.13;;
11877;SDS011;5998;42.676;23.268;2022-08-19T07:33:01;13.02;;;9.18;;
11877;SDS011;5998;42.676;23.268;2022-08-19T07:35:30;14.27;;;8.75;;
11877;SDS011;5998;42.676;23.268;2022-08-19T07:37:57;12.48;;;8.00;;
11877;SDS011;5998;42.676;23.268;2022-08-19T07:40:24;12.63;;;7.90;;
11877;SDS011;5998;42.676;23.268;2022-08-19T07:42:51;13.30;;;8.30;;
11877;SDS011;5998;42.676;23.268;2022-08-19T07:45:17;11.77;;;8.15;;
11877;SDS011;5998;42.676;23.268;2022-08-19T07:47:44;12.32;;;8.07;;
11877;SDS011;5998;42.676;23.268;2022-08-19T07:50:11;16.25;;;8.10;;
11877;SDS011;5998;42.676;23.268;2022-08-19T07:52:39;13.98;;;7.82;;
11877;SDS011;5998;42.676;23.268;2022-08-19T07:55:08;13.75;;;8.55;;
11877;SDS011;5998;42.676;23.268;2022-08-19T07:57:36;10.68;;;7.55;;
11877;SDS011;5998;42.676;23.268;2022-08-19T08:00:04;11.77;;;8.30;;
11877;SDS011;5998;42.676;23.268;2022-08-19T08:02:31;10.57;;;8.18;;
11877;SDS011;5998;42.676;23.268;2022-08-19T08:04:58;10.02;;;7.43;;
11877;SDS011;5998;42.676;23.268;2022-08-19T08:07:44;9.02;;;7.10;;
11877;SDS011;5998;42.676;23.268;2022-08-19T08:10:28;8.82;;;6.60;;
11877;SDS011;5998;42.676;23.268;2022-08-19T08:12:55;9.45;;;6.82;;
11877;SDS011;5998;42.676;23.268;2022-08-19T08:15:22;12.60;;;6.85;;
11877;SDS011;5998;42.676;23.268;2022-08-19T08:17:48;9.52;;;6.97;;
11877;SDS011;5998;42.676;23.268;2022-08-19T08:20:15;9.95;;;6.68;;
11877;SDS011;5998;42.676;23.268;2022-08-19T08:22:44;7.10;;;6.50;;
11877;SDS011;5998;42.676;23.268;2022-08-19T08:25:28;12.98;;;6.95;;
11877;SDS011;5998;42.676;23.268;2022-08-19T08:27:56;8.48;;;6.85;;
11877;SDS011;5998;42.676;23.268;2022-08-19T08:30:24;9.15;;;6.32;;
11877;SDS011;5998;42.676;23.268;2022-08-19T08:32:52;10.50;;;6.57;;
11877;SDS011;5998;42.676;23.268;2022-08-19T08:35:20;11.75;;;6.60;;
11877;SDS011;5998;42.676;23.268;2022-08-19T08:37:50;9.73;;;6.30;;
11877;SDS011;5998;42.676;23.268;2022-08-19T08:40:19;9.95;;;5.90;;
11877;SDS011;5998;42.676;23.268;2022-08-19T08:42:50;8.38;;;5.82;;
11877;SDS011;5998;42.676;23.268;2022-08-19T08:45:26;6.28;;;5.00;;
11877;SDS011;5998;42.676;23.268;2022-08-19T08:47:53;5.68;;;5.10;;
11877;SDS011;5998;42.676;23.268;2022-08-19T08:50:28;4.88;;;4.05;;
11877;SDS011;5998;42.676;23.268;2022-08-19T08:53:02;8.98;;;4.82;;
11877;SDS011;5998;42.676;23.268;2022-08-19T08:55:31;6.45;;;5.15;;
11877;SDS011;5998;42.676;23.268;2022-08-19T08:57:59;6.70;;;4.93;;
11877;SDS011;5998;42.676;23.268;2022-08-19T09:00:30;5.00;;;4.60;;
11877;SDS011;5998;42.676;23.268;2022-08-19T09:02:59;9.70;;;5.20;;
11877;SDS011;5998;42.676;23.268;2022-08-19T09:05:30;7.47;;;5.60;;
11877;SDS011;5998;42.676;23.268;2022-08-19T09:08:07;6.25;;;4.80;;
11877;SDS011;5998;42.676;23.268;2022-08-19T09:10:39;6.25;;;5.20;;
11877;SDS011;5998;42.676;23.268;2022-08-19T09:13:11;5.70;;;5.18;;
11877;SDS011;5998;42.676;23.268;2022-08-19T09:15:47;6.50;;;4.97;;
11877;SDS011;5998;42.676;23.268;2022-08-19T09:18:19;5.13;;;3.97;;
11877;SDS011;5998;42.676;23.268;2022-08-19T09:20:46;5.07;;;4.57;;
11877;SDS011;5998;42.676;23.268;2022-08-19T09:23:14;5.53;;;4.90;;
11877;SDS011;5998;42.676;23.268;2022-08-19T09:25:41;7.97;;;4.28;;
11877;SDS011;5998;42.676;23.268;2022-08-19T09:28:08;4.72;;;4.25;;
11877;SDS011;5998;42.676;23.268;2022-08-19T09:30:38;6.65;;;4.10;;
11877;SDS011;5998;42.676;23.268;2022-08-19T09:33:07;7.05;;;4.20;;
11877;SDS011;5998;42.676;23.268;2022-08-19T09:35:34;5.95;;;4.30;;
11877;SDS011;5998;42.676;23.268;2022-08-19T09:38:01;3.90;;;3.60;;
11877;SDS011;5998;42.676;23.268;2022-08-19T09:40:31;6.97;;;4.25;;
11877;SDS011;5998;42.676;23.268;2022-08-19T09:42:58;5.03;;;4.07;;
11877;SDS011;5998;42.676;23.268;2022-08-19T09:45:28;5.43;;;4.03;;
11877;SDS011;5998;42.676;23.268;2022-08-19T09:47:55;9.75;;;4.20;;
11877;SDS011;5998;42.676;23.268;2022-08-19T09:50:23;5.05;;;4.00;;
11877;SDS011;5998;42.676;23.268;2022-08-19T09:52:50;4.70;;;4.28;;
11877;SDS011;5998;42.676;23.268;2022-08-19T09:55:18;5.38;;;4.28;;
11877;SDS011;5998;42.676;23.268;2022-08-19T09:57:47;4.47;;;4.07;;
11877;SDS011;5998;42.676;23.268;2022-08-19T10:00:13;5.53;;;4.20;;
11877;SDS011;5998;42.676;23.268;2022-08-19T10:02:40;7.40;;;3.88;;
11877;SDS011;5998;42.676;23.268;2022-08-19T10:05:07;5.93;;;3.80;;
11877;SDS011;5998;42.676;23.268;2022-08-19T10:07:52;4.03;;;3.65;;
11877;SDS011;5998;42.676;23.268;2022-08-19T10:10:19;3.35;;;3.15;;
11877;SDS011;5998;42.676;23.268;2022-08-19T10:12:47;5.13;;;3.92;;
11877;SDS011;5998;42.676;23.268;2022-08-19T10:15:14;4.03;;;3.60;;
11877;SDS011;5998;42.676;23.268;2022-08-19T10:17:41;6.47;;;3.83;;
11877;SDS011;5998;42.676;23.268;2022-08-19T10:20:08;4.07;;;3.67;;
11877;SDS011;5998;42.676;23.268;2022-08-19T10:22:36;4.15;;;3.35;;
11877;SDS011;5998;42.676;23.268;2022-08-19T10:25:03;4.38;;;3.97;;
11877;SDS011;5998;42.676;23.268;2022-08-19T10:27:32;6.53;;;4.03;;
11877;SDS011;5998;42.676;23.268;2022-08-19T10:30:00;4.63;;;4.22;;
11877;SDS011;5998;42.676;23.268;2022-08-19T10:32:27;3.88;;;3.55;;
11877;SDS011;5998;42.676;23.268;2022-08-19T10:34:55;4.60;;;4.20;;
11877;SDS011;5998;42.676;23.268;2022-08-19T10:37:22;4.50;;;4.10;;
11877;SDS011;5998;42.676;23.268;2022-08-19T10:39:49;6.45;;;4.30;;
11877;SDS011;5998;42.676;23.268;2022-08-19T10:42:16;6.28;;;4.65;;
11877;SDS011;5998;42.676;23.268;2022-08-19T10:44:43;4.70;;;4.30;;
11877;SDS011;5998;42.676;23.268;2022-08-19T10:47:13;7.85;;;4.45;;
11877;SDS011;5998;42.676;23.268;2022-08-19T10:49:41;5.28;;;4.85;;
11877;SDS011;5998;42.676;23.268;2022-08-19T10:52:25;4.95;;;4.30;;
11877;SDS011;5998;42.676;23.268;2022-08-19T10:55:03;5.00;;;4.60;;
11877;SDS011;5998;42.676;23.268;2022-08-19T10:57:48;5.88;;;4.50;;
11877;SDS011;5998;42.676;23.268;2022-08-19T11:00:15;4.95;;;4.40;;
11877;SDS011;5998;42.676;23.268;2022-08-19T11:02:44;5.35;;;4.68;;
11877;SDS011;5998;42.676;23.268;2022-08-19T11:05:11;4.93;;;4.47;;
11877;SDS011;5998;42.676;23.268;2022-08-19T11:07:38;5.22;;;4.72;;
11877;SDS011;5998;42.676;23.268;2022-08-19T11:10:06;5.43;;;4.60;;
11877;SDS011;5998;42.676;23.268;2022-08-19T11:12:36;4.93;;;4.43;;
11877;SDS011;5998;42.676;23.268;2022-08-19T11:15:04;4.82;;;4.32;;
11877;SDS011;5998;42.676;23.268;2022-08-19T11:17:32;5.22;;;4.70;;
11877;SDS011;5998;42.676;23.268;2022-08-19T11:20:01;5.80;;;4.68;;
11877;SDS011;5998;42.676;23.268;2022-08-19T11:22:30;5.88;;;4.75;;
11877;SDS011;5998;42.676;23.268;2022-08-19T11:24:56;4.53;;;4.20;;
11877;SDS011;5998;42.676;23.268;2022-08-19T11:27:23;6.15;;;4.75;;
11877;SDS011;5998;42.676;23.268;2022-08-19T11:29:50;5.18;;;4.53;;
11877;SDS011;5998;42.676;23.268;2022-08-19T11:32:17;7.45;;;4.63;;
11877;SDS011;5998;42.676;23.268;2022-08-19T11:34:44;5.38;;;4.90;;
11877;SDS011;5998;42.676;23.268;2022-08-19T11:37:13;4.90;;;4.50;;
11877;SDS011;5998;42.676;23.268;2022-08-19T11:39:40;5.35;;;4.43;;
11877;SDS011;5998;42.676;23.268;2022-08-19T11:42:07;6.03;;;4.75;;
11877;SDS011;5998;42.676;23.268;2022-08-19T11:44:48;4.80;;;4.40;;
11877;SDS011;5998;42.676;23.268;2022-08-19T11:47:15;7.65;;;4.78;;
11877;SDS011;5998;42.676;23.268;2022-08-19T11:49:41;4.90;;;4.50;;
11877;SDS011;5998;42.676;23.268;2022-08-19T11:52:08;6.03;;;4.40;;
11877;SDS011;5998;42.676;23.268;2022-08-19T11:54:37;7.35;;;4.82;;
11877;SDS011;5998;42.676;23.268;2022-08-19T11:57:04;5.38;;;4.53;;
11877;SDS011;5998;42.676;23.268;2022-08-19T11:59:31;5.93;;;4.88;;
11877;SDS011;5998;42.676;23.268;2022-08-19T12:01:57;4.90;;;4.50;;
11877;SDS011;5998;42.676;23.268;2022-08-19T12:04:24;4.78;;;4.35;;
11877;SDS011;5998;42.676;23.268;2022-08-19T12:06:51;6.20;;;4.50;;
11877;SDS011;5998;42.676;23.268;2022-08-19T12:09:18;5.18;;;4.75;;
11877;SDS011;5998;42.676;23.268;2022-08-19T12:11:48;5.40;;;4.75;;
11877;SDS011;5998;42.676;23.268;2022-08-19T12:14:15;5.60;;;4.30;;
11877;SDS011;5998;42.676;23.268;2022-08-19T12:16:43;5.10;;;4.57;;
11877;SDS011;5998;42.676;23.268;2022-08-19T12:19:11;10.55;;;4.82;;
11877;SDS011;5998;42.676;23.268;2022-08-19T12:21:38;5.10;;;4.63;;
11877;SDS011;5998;42.676;23.268;2022-08-19T12:24:05;5.13;;;4.72;;
11877;SDS011;5998;42.676;23.268;2022-08-19T12:26:33;5.82;;;4.53;;
11877;SDS011;5998;42.676;23.268;2022-08-19T12:29:03;7.07;;;4.75;;
11877;SDS011;5998;42.676;23.268;2022-08-19T12:31:30;5.18;;;4.65;;
11877;SDS011;5998;42.676;23.268;2022-08-19T12:33:57;5.68;;;4.47;;
11877;SDS011;5998;42.676;23.268;2022-08-19T12:36:25;4.43;;;4.03;;
11877;SDS011;5998;42.676;23.268;2022-08-19T12:38:52;4.72;;;4.22;;
11877;SDS011;5998;42.676;23.268;2022-08-19T12:41:19;5.53;;;4.60;;
11877;SDS011;5998;42.676;23.268;2022-08-19T12:43:46;5.25;;;4.57;;
11877;SDS011;5998;42.676;23.268;2022-08-19T12:46:17;5.05;;;4.63;;
11877;SDS011;5998;42.676;23.268;2022-08-19T12:48:44;5.68;;;4.78;;
11877;SDS011;5998;42.676;23.268;2022-08-19T12:51:12;6.10;;;4.47;;
11877;SDS011;5998;42.676;23.268;2022-08-19T12:53:41;10.35;;;5.28;;
11877;SDS011;5998;42.676;23.268;2022-08-19T12:56:08;4.97;;;4.38;;
11877;SDS011;5998;42.676;23.268;2022-08-19T12:58:36;5.38;;;4.50;;
11877;SDS011;5998;42.676;23.268;2022-08-19T13:01:07;6.07;;;4.95;;
11877;SDS011;5998;42.676;23.268;2022-08-19T13:03:36;5.38;;;4.15;;
11877;SDS011;5998;42.676;23.268;2022-08-19T13:06:03;4.97;;;4.25;;
11877;SDS011;5998;42.676;23.268;2022-08-19T13:08:30;5.85;;;4.63;;
11877;SDS011;5998;42.676;23.268;2022-08-19T13:10:57;5.50;;;4.68;;
11877;SDS011;5998;42.676;23.268;2022-08-19T13:13:32;5.38;;;4.50;;
11877;SDS011;5998;42.676;23.268;2022-08-19T13:15:59;5.78;;;4.72;;
11877;SDS011;5998;42.676;23.268;2022-08-19T13:18:27;7.18;;;4.45;;
11877;SDS011;5998;42.676;23.268;2022-08-19T13:20:56;4.60;;;4.20;;
11877;SDS011;5998;42.676;23.268;2022-08-19T13:23:22;4.57;;;4.22;;
11877;SDS011;5998;42.676;23.268;2022-08-19T13:25:55;5.55;;;4.05;;
11877;SDS011;5998;42.676;23.268;2022-08-19T13:28:22;4.63;;;4.22;;
11877;SDS011;5998;42.676;23.268;2022-08-19T13:30:49;5.13;;;4.55;;
11877;SDS011;5998;42.676;23.268;2022-08-19T13:33:33;6.32;;;4.50;;
11877;SDS011;5998;42.676;23.268;2022-08-19T13:36:01;6.85;;;4.50;;
11877;SDS011;5998;42.676;23.268;2022-08-19T13:38:32;9.32;;;4.40;;
11877;SDS011;5998;42.676;23.268;2022-08-19T13:41:03;5.03;;;4.50;;
11877;SDS011;5998;42.676;23.268;2022-08-19T13:43:32;6.55;;;4.72;;
11877;SDS011;5998;42.676;23.268;2022-08-19T13:45:59;5.07;;;4.53;;
11877;SDS011;5998;42.676;23.268;2022-08-19T13:48:25;5.20;;;4.70;;
11877;SDS011;5998;42.676;23.268;2022-08-19T13:50:52;5.65;;;4.43;;
11877;SDS011;5998;42.676;23.268;2022-08-19T13:53:21;4.68;;;4.20;;
11877;SDS011;5998;42.676;23.268;2022-08-19T13:55:48;5.15;;;4.43;;
11877;SDS011;5998;42.676;23.268;2022-08-19T13:58:16;5.68;;;4.40;;
11877;SDS011;5998;42.676;23.268;2022-08-19T14:00:43;6.82;;;4.65;;
11877;SDS011;5998;42.676;23.268;2022-08-19T14:03:12;7.00;;;4.72;;
11877;SDS011;5998;42.676;23.268;2022-08-19T14:05:38;10.50;;;4.88;;
11877;SDS011;5998;42.676;23.268;2022-08-19T14:08:05;7.85;;;4.55;;
11877;SDS011;5998;42.676;23.268;2022-08-19T14:10:33;7.35;;;4.47;;
11877;SDS011;5998;42.676;23.268;2022-08-19T14:13:01;6.25;;;4.82;;
11877;SDS011;5998;42.676;23.268;2022-08-19T14:15:29;6.00;;;5.00;;
11877;SDS011;5998;42.676;23.268;2022-08-19T14:17:57;7.25;;;5.32;;
11877;SDS011;5998;42.676;23.268;2022-08-19T14:20:24;7.15;;;4.97;;
11877;SDS011;5998;42.676;23.268;2022-08-19T14:22:50;5.88;;;4.78;;
11877;SDS011;5998;42.676;23.268;2022-08-19T14:25:18;6.88;;;5.18;;
11877;SDS011;5998;42.676;23.268;2022-08-19T14:27:47;7.15;;;5.03;;
11877;SDS011;5998;42.676;23.268;2022-08-19T14:30:15;7.78;;;5.15;;
11877;SDS011;5998;42.676;23.268;2022-08-19T14:32:44;6.28;;;4.78;;
11877;SDS011;5998;42.676;23.268;2022-08-19T14:35:12;7.55;;;5.15;;
11877;SDS011;5998;42.676;23.268;2022-08-19T14:37:40;5.05;;;4.65;;
11877;SDS011;5998;42.676;23.268;2022-08-19T14:40:09;5.28;;;4.30;;
11877;SDS011;5998;42.676;23.268;2022-08-19T14:42:36;6.30;;;4.53;;
11877;SDS011;5998;42.676;23.268;2022-08-19T14:45:05;6.47;;;4.88;;
11877;SDS011;5998;42.676;23.268;2022-08-19T14:47:33;7.68;;;5.47;;
11877;SDS011;5998;42.676;23.268;2022-08-19T14:49:59;5.28;;;4.72;;